createdAt,value
2018-04-07T00:02:02.002Z,17.23
2018-04-07T00:04:29.551Z,16.03
2018-04-07T00:06:57.123Z,16.97
2018-04-07T00:09:24.679Z,16.53
2018-04-07T00:11:52.272Z,14.90
2018-04-07T00:14:19.850Z,15.73
2018-04-07T00:16:48.266Z,14.37
2018-04-07T00:19:15.871Z,15.10
2018-04-07T00:21:43.443Z,14.33
2018-04-07T00:24:11.765Z,14.20
2018-04-07T00:26:39.311Z,14.40
2018-04-07T00:29:06.912Z,14.20
2018-04-07T00:31:34.452Z,13.20
2018-04-07T00:34:01.996Z,17.13
2018-04-07T00:36:29.590Z,14.70
2018-04-07T00:38:57.143Z,13.13
2018-04-07T00:41:24.696Z,15.07
2018-04-07T00:44:05.242Z,19.10
2018-04-07T00:46:32.796Z,14.80
2018-04-07T00:49:00.350Z,15.37
2018-04-07T00:51:27.922Z,15.30
2018-04-07T00:53:55.484Z,13.83
2018-04-07T00:56:23.070Z,15.60
2018-04-07T00:58:50.646Z,15.23
2018-04-07T01:01:18.179Z,12.07
2018-04-07T01:03:45.732Z,14.47
2018-04-07T01:06:13.311Z,14.37
2018-04-07T01:08:40.882Z,15.27
2018-04-07T01:11:08.426Z,13.50
2018-04-07T01:13:36.016Z,18.73
2018-04-07T01:16:04.333Z,16.77
2018-04-07T01:18:31.883Z,17.77
2018-04-07T01:20:59.512Z,17.13
2018-04-07T01:23:27.823Z,13.47
2018-04-07T01:25:55.370Z,16.97
2018-04-07T01:28:22.976Z,19.53
2018-04-07T01:30:50.529Z,18.13
2018-04-07T01:33:18.088Z,16.90
2018-04-07T01:35:45.663Z,16.40
2018-04-07T01:38:13.251Z,17.20
2018-04-07T01:40:41.582Z,15.57
2018-04-07T01:43:09.499Z,19.87
2018-04-07T01:45:37.106Z,15.90
2018-04-07T01:48:04.676Z,14.70
2018-04-07T01:50:32.262Z,16.23
2018-04-07T01:53:00.585Z,17.20
2018-04-07T01:55:28.147Z,18.97
2018-04-07T01:57:55.728Z,16.30
2018-04-07T02:00:24.083Z,16.73
2018-04-07T02:02:51.629Z,18.37
2018-04-07T02:05:19.210Z,18.10
2018-04-07T02:07:46.762Z,15.97
2018-04-07T02:10:14.303Z,14.50
2018-04-07T02:12:41.883Z,21.67
2018-04-07T02:15:09.439Z,18.00
2018-04-07T02:17:36.987Z,18.10
2018-04-07T02:20:04.560Z,16.40
2018-04-07T02:22:32.102Z,20.20
2018-04-07T02:24:59.649Z,17.83
2018-04-07T02:27:27.219Z,15.50
2018-04-07T02:29:54.779Z,17.50
2018-04-07T02:32:22.337Z,18.20
2018-04-07T02:34:49.923Z,17.80
2018-04-07T02:37:17.471Z,20.37
2018-04-07T02:39:45.021Z,16.60
2018-04-07T02:42:12.611Z,17.80
2018-04-07T02:44:40.180Z,20.40
2018-04-07T02:47:07.734Z,20.70
2018-04-07T02:49:35.312Z,19.30
2018-04-07T02:52:02.867Z,21.30
2018-04-07T02:54:30.441Z,21.30
2018-04-07T02:56:58.790Z,19.93
2018-04-07T02:59:26.347Z,23.53
2018-04-07T03:01:53.891Z,20.83
2018-04-07T03:04:21.463Z,20.90
2018-04-07T03:06:49.009Z,18.20
2018-04-07T03:09:16.583Z,23.23
2018-04-07T03:11:44.230Z,20.20
2018-04-07T03:14:11.781Z,19.77
2018-04-07T03:16:39.334Z,20.73
2018-04-07T03:19:06.906Z,19.50
2018-04-07T03:21:34.447Z,18.47
2018-04-07T03:24:08.481Z,20.13
2018-04-07T03:26:36.023Z,21.30
2018-04-07T03:29:03.582Z,21.40
2018-04-07T03:31:31.174Z,19.20
2018-04-07T03:33:58.738Z,19.27
2018-04-07T03:36:26.304Z,19.70
2018-04-07T03:38:53.888Z,20.17
2018-04-07T03:41:22.224Z,20.97
2018-04-07T03:43:49.865Z,25.00
2018-04-07T03:46:17.436Z,19.30
2018-04-07T03:48:44.992Z,20.57
2018-04-07T03:51:12.566Z,23.40
2018-04-07T03:53:40.136Z,17.27
2018-04-07T03:56:07.699Z,20.07
2018-04-07T03:58:35.323Z,24.67
2018-04-07T04:01:02.876Z,21.20
2018-04-07T04:03:30.471Z,22.00
2018-04-07T04:05:58.025Z,22.00
2018-04-07T04:08:25.589Z,20.20
2018-04-07T04:10:53.179Z,18.77
2018-04-07T04:13:21.506Z,22.43
2018-04-07T04:16:11.104Z,21.83
2018-04-07T04:18:38.662Z,23.50
2018-04-07T04:21:07.005Z,26.23
2018-04-07T04:23:34.936Z,23.53
2018-04-07T04:26:03.239Z,27.30
2018-04-07T04:28:30.818Z,21.17
2018-04-07T04:30:58.378Z,25.07
2018-04-07T04:33:50.234Z,23.60
2018-04-07T04:36:17.781Z,21.80
2018-04-07T04:38:45.379Z,25.43
2018-04-07T04:41:13.703Z,20.63
2018-04-07T04:43:41.246Z,25.67
2018-04-07T04:46:08.858Z,24.60
2018-04-07T04:48:36.398Z,25.37
2018-04-07T04:51:03.985Z,22.77
2018-04-07T04:53:31.597Z,22.93
2018-04-07T04:55:59.152Z,23.77
2018-04-07T04:58:26.742Z,24.47
2018-04-07T05:00:54.301Z,25.40
2018-04-07T05:03:32.072Z,28.27
2018-04-07T05:06:00.646Z,26.90
2018-04-07T05:08:28.198Z,24.80
2018-04-07T05:10:55.763Z,22.93
2018-04-07T05:13:23.322Z,22.13
2018-04-07T05:15:50.892Z,23.90
2018-04-07T05:18:18.442Z,21.17
2018-04-07T05:20:45.983Z,24.80
2018-04-07T05:23:13.555Z,24.03
2018-04-07T05:25:41.275Z,21.43
2018-04-07T05:28:21.862Z,26.40
2018-04-07T05:30:58.865Z,27.90
2018-04-07T05:33:26.452Z,25.70
2018-04-07T05:36:03.959Z,20.57
2018-04-07T05:38:31.559Z,24.03
2018-04-07T05:40:59.883Z,26.90
2018-04-07T05:43:28.271Z,22.40
2018-04-07T05:45:55.858Z,21.17
2018-04-07T05:48:45.449Z,20.17
2018-04-07T05:51:14.005Z,24.67
2018-04-07T05:53:41.803Z,26.53
2018-04-07T05:56:09.404Z,25.30
2018-04-07T05:58:36.966Z,23.87
2018-04-07T06:01:04.514Z,24.70
2018-04-07T06:03:32.104Z,23.00
2018-04-07T06:06:12.652Z,19.07
2018-04-07T06:08:44.090Z,23.33
2018-04-07T06:11:11.635Z,22.10
2018-04-07T06:13:56.354Z,23.60
2018-04-07T06:16:23.902Z,21.50
2018-04-07T06:18:51.491Z,19.67
2018-04-07T06:21:19.809Z,21.67
2018-04-07T06:23:47.355Z,24.87
2018-04-07T06:26:14.949Z,25.53
2018-04-07T06:28:42.499Z,21.13
2018-04-07T06:31:10.076Z,21.67
2018-04-07T06:33:37.626Z,23.67
2018-04-07T06:36:11.701Z,22.13
2018-04-07T06:38:39.280Z,27.00
2018-04-07T06:41:07.659Z,21.50
2018-04-07T06:43:35.210Z,26.43
2018-04-07T06:46:02.769Z,23.03
2018-04-07T06:48:30.344Z,22.77
2018-04-07T06:50:57.900Z,22.30
2018-04-07T06:53:25.455Z,19.50
2018-04-07T06:55:53.044Z,26.97
2018-04-07T06:58:23.531Z,22.20
2018-04-07T07:00:51.104Z,19.00
2018-04-07T07:03:18.787Z,18.67
2018-04-07T07:05:46.384Z,23.90
2018-04-07T07:08:13.964Z,22.60
2018-04-07T07:10:41.507Z,22.20
2018-04-07T07:13:09.084Z,23.63
2018-04-07T07:15:36.627Z,25.40
2018-04-07T07:18:04.171Z,23.63
2018-04-07T07:20:32.527Z,21.43
2018-04-07T07:23:00.072Z,20.77
2018-04-07T07:25:27.656Z,22.03
2018-04-07T07:27:55.983Z,23.33
2018-04-07T07:30:23.529Z,23.20
2018-04-07T07:32:51.099Z,25.37
2018-04-07T07:35:18.649Z,19.70
2018-04-07T07:37:46.298Z,23.70
2018-04-07T07:40:13.868Z,21.90
2018-04-07T07:42:41.726Z,21.47
2018-04-07T07:45:09.330Z,21.83
2018-04-07T07:47:36.903Z,21.53
2018-04-07T07:50:04.477Z,23.87
2018-04-07T07:52:32.867Z,21.60
2018-04-07T07:55:01.179Z,20.37
2018-04-07T07:57:28.783Z,21.43
2018-04-07T07:59:56.674Z,23.00
2018-04-07T08:02:24.280Z,22.17
2018-04-07T08:04:52.394Z,19.33
2018-04-07T08:07:24.119Z,25.27
2018-04-07T08:09:51.674Z,18.37
2018-04-07T08:12:19.231Z,21.20
2018-04-07T08:14:59.981Z,20.70
2018-04-07T08:17:27.809Z,20.53
2018-04-07T08:20:04.951Z,20.20
2018-04-07T08:22:32.777Z,19.90
2018-04-07T08:25:06.905Z,25.17
2018-04-07T08:27:34.470Z,20.90
2018-04-07T08:30:09.475Z,22.13
2018-04-07T08:32:37.027Z,23.03
2018-04-07T08:35:05.341Z,19.23
2018-04-07T08:37:32.911Z,19.40
2018-04-07T08:40:00.458Z,24.90
2018-04-07T08:42:28.027Z,18.33
2018-04-07T08:44:55.566Z,22.00
2018-04-07T08:47:23.149Z,20.50
2018-04-07T08:49:50.719Z,23.70
2018-04-07T08:52:18.358Z,18.40
2018-04-07T08:54:45.946Z,21.73
2018-04-07T08:57:13.497Z,22.07
2018-04-07T08:59:41.055Z,18.17
2018-04-07T09:02:09.627Z,19.27
2018-04-07T09:04:37.310Z,20.37
2018-04-07T09:07:04.949Z,21.63
2018-04-07T09:09:32.535Z,19.90
2018-04-07T09:12:00.084Z,20.60
2018-04-07T09:14:27.653Z,24.53
2018-04-07T09:16:56.303Z,20.20
2018-04-07T09:19:25.911Z,18.80
2018-04-07T09:22:03.570Z,17.57
2018-04-07T09:24:45.147Z,18.53
2018-04-07T09:30:06.211Z,17.73
2018-04-07T09:32:33.759Z,16.00
2018-04-07T09:35:01.310Z,17.80
2018-04-07T09:37:29.647Z,18.40
2018-04-07T09:40:01.064Z,19.23
2018-04-07T09:42:28.640Z,16.43
2018-04-07T09:44:56.198Z,21.27
2018-04-07T09:47:23.751Z,16.13
2018-04-07T09:49:51.315Z,15.83
2018-04-07T09:52:18.897Z,20.60
2018-04-07T09:54:46.475Z,18.30
2018-04-07T09:57:14.022Z,15.17
2018-04-07T09:59:41.563Z,19.10
2018-04-07T10:02:22.554Z,18.27
2018-04-07T10:04:52.111Z,17.27
2018-04-07T10:07:19.699Z,17.30
2018-04-07T10:09:53.960Z,17.70
2018-04-07T10:12:22.301Z,16.50
2018-04-07T10:14:49.872Z,18.70
2018-04-07T10:17:17.436Z,16.60
2018-04-07T10:19:45.018Z,16.63
2018-04-07T10:22:16.940Z,14.80
2018-04-07T10:24:47.918Z,17.07
2018-04-07T10:27:17.254Z,14.93
2018-04-07T10:29:44.831Z,16.83
2018-04-07T10:32:12.407Z,15.47
2018-04-07T10:35:03.101Z,16.57
2018-04-07T10:37:31.714Z,16.87
2018-04-07T10:39:59.262Z,16.73
2018-04-07T10:42:26.832Z,16.50
2018-04-07T10:45:14.842Z,20.90
2018-04-07T10:47:42.419Z,15.53
2018-04-07T10:50:09.995Z,14.40
2018-04-07T10:52:38.370Z,17.80
2018-04-07T10:55:05.935Z,17.97
2018-04-07T10:57:34.248Z,18.30
2018-04-07T11:00:01.861Z,15.37
2018-04-07T11:02:30.191Z,17.40
2018-04-07T11:04:57.756Z,16.20
2018-04-07T11:07:25.335Z,16.30
2018-04-07T11:09:52.904Z,15.20
2018-04-07T11:12:20.499Z,17.47
2018-04-07T11:14:49.313Z,15.53
2018-04-07T11:17:16.921Z,15.57
2018-04-07T11:19:44.604Z,14.90
2018-04-07T11:22:13.320Z,16.17
2018-04-07T11:24:40.931Z,21.40
2018-04-07T11:27:08.486Z,17.50
2018-04-07T11:29:39.386Z,19.27
2018-04-07T11:32:07.045Z,16.37
2018-04-07T11:34:34.610Z,14.90
2018-04-07T11:37:02.186Z,16.80
2018-04-07T11:39:29.750Z,13.50
2018-04-07T11:41:57.306Z,15.83
2018-04-07T11:44:24.905Z,15.90
2018-04-07T11:46:53.275Z,15.60
2018-04-07T11:49:21.644Z,14.70
2018-04-07T11:51:49.192Z,15.83
2018-04-07T11:54:16.774Z,15.77
2018-04-07T11:56:45.115Z,17.30
2018-04-07T11:59:12.662Z,13.57
2018-04-07T12:01:54.403Z,16.03
2018-04-07T12:04:22.720Z,16.07
2018-04-07T12:06:50.310Z,17.43
2018-04-07T12:09:17.882Z,16.77
2018-04-07T12:11:45.435Z,15.27
2018-04-07T12:14:13.010Z,19.40
2018-04-07T12:16:50.419Z,17.60
2018-04-07T12:19:18.780Z,16.63
2018-04-07T12:21:59.646Z,15.80
2018-04-07T12:24:27.302Z,13.10
2018-04-07T12:26:55.834Z,12.80
2018-04-07T12:29:23.523Z,16.70
2018-04-07T12:31:57.208Z,13.70
2018-04-07T12:34:24.863Z,15.57
2018-04-07T12:39:47.117Z,13.80
2018-04-07T12:42:14.698Z,15.20
2018-04-07T12:44:42.246Z,12.03
2018-04-07T12:47:09.802Z,14.07
2018-04-07T12:49:37.367Z,15.53
2018-04-07T12:52:04.927Z,18.93
2018-04-07T12:54:32.539Z,16.73
2018-04-07T12:57:00.872Z,17.30
2018-04-07T12:59:28.423Z,16.17
2018-04-07T13:01:56.009Z,14.03
2018-04-07T13:04:23.594Z,14.00
2018-04-07T13:06:51.942Z,15.20
2018-04-07T13:09:19.504Z,11.87
2018-04-07T13:12:06.742Z,11.30
2018-04-07T13:14:34.303Z,12.17
2018-04-07T13:17:01.879Z,14.63
2018-04-07T13:19:30.243Z,13.87
2018-04-07T13:21:58.715Z,15.70
2018-04-07T13:24:26.286Z,14.80
2018-04-07T13:26:54.644Z,14.73
2018-04-07T13:29:22.199Z,10.53
2018-04-07T13:32:09.677Z,12.40
2018-04-07T13:34:37.543Z,13.93
2018-04-07T13:37:05.122Z,15.47
2018-04-07T13:39:33.717Z,16.70
2018-04-07T13:42:01.269Z,13.20
2018-04-07T13:44:28.850Z,13.13
2018-04-07T13:46:56.400Z,12.90
2018-04-07T13:49:24.745Z,10.77
2018-04-07T13:51:53.128Z,10.47
2018-04-07T13:54:20.683Z,18.07
2018-04-07T13:56:48.246Z,12.40
2018-04-07T13:59:15.854Z,10.23
2018-04-07T14:01:43.436Z,9.70
2018-04-07T14:04:16.083Z,10.27
2018-04-07T14:06:43.688Z,9.30
2018-04-07T14:09:21.677Z,10.43
2018-04-07T14:11:50.043Z,11.77
2018-04-07T14:14:17.602Z,9.80
2018-04-07T14:16:45.253Z,9.40
2018-04-07T14:19:31.753Z,9.53
2018-04-07T14:21:59.322Z,11.40
2018-04-07T14:24:26.932Z,10.03
2018-04-07T14:26:54.548Z,10.50
2018-04-07T14:29:22.097Z,8.80
2018-04-07T14:31:49.663Z,9.67
2018-04-07T14:34:17.243Z,9.30
2018-04-07T14:36:45.607Z,10.57
2018-04-07T14:39:13.147Z,10.40
2018-04-07T14:41:50.794Z,9.53
2018-04-07T14:44:18.349Z,9.40
2018-04-07T14:46:49.192Z,10.07
2018-04-07T14:49:23.230Z,13.10
2018-04-07T14:51:50.767Z,8.73
2018-04-07T14:54:18.346Z,9.13
2018-04-07T14:56:45.971Z,8.60
2018-04-07T14:59:13.485Z,9.10
2018-04-07T15:01:41.104Z,8.10
2018-04-07T15:04:08.675Z,10.10
2018-04-07T15:06:37.038Z,8.37
2018-04-07T15:09:04.605Z,18.60
2018-04-07T15:11:32.159Z,8.20
2018-04-07T15:13:59.826Z,13.10
2018-04-07T15:16:27.363Z,9.23
2018-04-07T15:18:55.790Z,10.10
2018-04-07T15:21:23.354Z,7.07
2018-04-07T15:23:51.644Z,6.90
2018-04-07T15:26:19.222Z,7.63
2018-04-07T15:28:47.547Z,8.77
2018-04-07T15:31:15.128Z,15.30
2018-04-07T15:33:42.746Z,7.60
2018-04-07T15:36:10.293Z,7.87
2018-04-07T15:38:38.631Z,8.60
2018-04-07T15:41:06.184Z,8.80
2018-04-07T15:43:33.746Z,13.90
2018-04-07T15:46:02.361Z,13.10
2018-04-07T15:48:33.823Z,12.17
2018-04-07T15:53:55.190Z,9.77
2018-04-07T15:56:22.743Z,9.43
2018-04-07T15:58:50.294Z,13.50
2018-04-07T16:01:17.858Z,8.57
2018-04-07T16:03:48.806Z,8.03
2018-04-07T16:06:16.371Z,9.63
2018-04-07T16:08:43.930Z,8.30
2018-04-07T16:11:11.472Z,9.70
2018-04-07T16:13:39.134Z,9.90
2018-04-07T16:16:06.855Z,10.33
2018-04-07T16:18:35.267Z,8.83
2018-04-07T16:21:02.828Z,9.00
2018-04-07T16:23:30.387Z,7.97
2018-04-07T16:25:57.987Z,10.93
2018-04-07T16:28:25.532Z,11.30
2018-04-07T16:30:53.101Z,10.67
2018-04-07T16:33:21.228Z,9.30
2018-04-07T16:35:48.890Z,9.80
2018-04-07T16:38:17.241Z,10.67
2018-04-07T16:40:46.037Z,9.40
2018-04-07T16:43:13.626Z,8.23
2018-04-07T16:45:41.397Z,13.20
2018-04-07T16:48:08.955Z,10.40
2018-04-07T16:50:36.536Z,12.80
2018-04-07T16:53:04.124Z,14.40
2018-04-07T16:55:31.993Z,16.83
2018-04-07T16:58:00.444Z,26.53
2018-04-07T17:00:28.294Z,10.70
2018-04-07T17:02:56.068Z,11.10
2018-04-07T17:05:23.675Z,9.30
2018-04-07T17:07:51.244Z,10.50
2018-04-07T17:10:19.639Z,20.27
2018-04-07T17:12:47.242Z,38.97
2018-04-07T17:15:14.794Z,109.93
2018-04-07T17:17:42.499Z,51.67
2018-04-07T17:20:21.863Z,11.93
2018-04-07T17:22:51.561Z,10.23
2018-04-07T17:25:20.222Z,12.67
2018-04-07T17:27:50.031Z,11.63
2018-04-07T17:30:21.120Z,13.87
2018-04-07T17:32:48.671Z,11.70
2018-04-07T17:35:16.253Z,13.40
2018-04-07T17:37:43.820Z,12.93
2018-04-07T17:40:11.427Z,14.80
2018-04-07T17:42:39.006Z,14.73
2018-04-07T17:45:07.342Z,16.90
2018-04-07T17:47:34.882Z,17.50
2018-04-07T17:50:06.563Z,15.53
2018-04-07T17:52:34.114Z,12.13
2018-04-07T17:55:01.686Z,10.97
2018-04-07T17:57:41.090Z,13.40
2018-04-07T18:00:26.835Z,11.60
2018-04-07T18:02:55.256Z,10.47
2018-04-07T18:05:22.804Z,11.33
2018-04-07T18:07:50.407Z,11.27
2018-04-07T18:10:17.988Z,9.57
2018-04-07T18:12:46.335Z,9.57
2018-04-07T18:18:11.346Z,10.70
2018-04-07T18:20:57.542Z,12.63
2018-04-07T18:26:28.332Z,17.53
2018-04-07T18:28:56.679Z,11.30
2018-04-07T18:31:24.232Z,12.67
2018-04-07T18:33:51.798Z,14.70
2018-04-07T18:36:20.725Z,12.63
2018-04-07T18:38:48.787Z,12.67
2018-04-07T18:41:33.787Z,16.00
2018-04-07T18:44:02.217Z,18.40
2018-04-07T18:46:30.723Z,14.63
2018-04-07T18:49:02.741Z,13.90
2018-04-07T18:51:34.193Z,10.93
2018-04-07T18:54:04.956Z,11.80
2018-04-07T18:56:32.507Z,12.63
2018-04-07T18:59:00.263Z,13.50
2018-04-07T19:01:28.360Z,12.03
2018-04-07T19:03:56.763Z,12.07
2018-04-07T19:06:25.770Z,11.50
2018-04-07T19:08:53.460Z,17.10
2018-04-07T19:11:27.072Z,13.30
2018-04-07T19:13:55.015Z,12.30
2018-04-07T19:16:25.059Z,15.93
2018-04-07T19:18:52.728Z,13.73
2018-04-07T19:21:20.690Z,16.57
2018-04-07T19:23:51.182Z,12.70
2018-04-07T19:26:19.910Z,13.67
2018-04-07T19:28:47.724Z,15.07
2018-04-07T19:31:15.330Z,14.07
2018-04-07T19:33:43.220Z,15.73
2018-04-07T19:36:11.188Z,15.20
2018-04-07T19:38:39.178Z,17.03
2018-04-07T19:41:09.155Z,17.27
2018-04-07T19:43:37.126Z,17.97
2018-04-07T19:46:04.906Z,17.00
2018-04-07T19:48:34.420Z,17.63
2018-04-07T19:51:02.783Z,29.40
2018-04-07T19:53:31.623Z,16.40
2018-04-07T19:55:59.375Z,14.93
2018-04-07T19:58:32.814Z,15.07
2018-04-07T20:01:00.499Z,17.20
2018-04-07T20:03:34.592Z,16.80
2018-04-07T20:06:03.361Z,17.70
2018-04-07T20:08:30.950Z,14.70
2018-04-07T20:10:58.780Z,18.73
2018-04-07T20:13:26.326Z,17.97
2018-04-07T20:16:12.079Z,18.03
2018-04-07T20:18:59.406Z,17.10
2018-04-07T20:21:27.750Z,18.70
2018-04-07T20:24:01.003Z,20.50
2018-04-07T20:26:28.677Z,16.93
2018-04-07T20:31:49.013Z,16.33
2018-04-07T20:34:17.570Z,16.30
2018-04-07T20:36:45.129Z,23.60
2018-04-07T20:39:12.721Z,16.40
2018-04-07T20:41:40.266Z,16.63
2018-04-07T20:44:07.837Z,18.50
2018-04-07T20:46:35.421Z,17.53
2018-04-07T20:49:03.743Z,17.70
2018-04-07T20:51:31.335Z,16.93
2018-04-07T20:53:58.887Z,15.47
2018-04-07T20:56:27.476Z,17.10
2018-04-07T20:58:55.026Z,16.23
2018-04-07T21:01:22.583Z,16.33
2018-04-07T21:03:50.194Z,18.73
2018-04-07T21:06:18.511Z,19.70
2018-04-07T21:09:06.204Z,16.63
2018-04-07T21:11:33.756Z,16.90
2018-04-07T21:14:02.077Z,18.30
2018-04-07T21:16:29.652Z,20.47
2018-04-07T21:19:02.478Z,19.80
2018-04-07T21:21:30.023Z,22.33
2018-04-07T21:23:58.343Z,19.60
2018-04-07T21:26:25.934Z,18.73
2018-04-07T21:28:53.514Z,20.23
2018-04-07T21:31:21.852Z,19.40
2018-04-07T21:33:49.430Z,19.83
2018-04-07T21:36:17.066Z,23.93
2018-04-07T21:38:44.630Z,18.57
2018-04-07T21:41:12.203Z,23.07
2018-04-07T21:43:39.759Z,18.53
2018-04-07T21:46:07.347Z,18.40
2018-04-07T21:48:34.942Z,19.23
2018-04-07T21:51:03.270Z,18.73
2018-04-07T21:53:30.847Z,19.70
2018-04-07T21:55:58.395Z,19.83
2018-04-07T21:58:26.007Z,21.97
2018-04-07T22:00:53.592Z,16.23
2018-04-07T22:03:21.170Z,20.17
2018-04-07T22:05:48.784Z,19.03
2018-04-07T22:08:16.349Z,21.27
2018-04-07T22:10:43.921Z,18.10
2018-04-07T22:13:11.478Z,18.70
2018-04-07T22:15:39.031Z,24.83
2018-04-07T22:18:06.616Z,18.30
2018-04-07T22:20:34.175Z,19.63
2018-04-07T22:23:01.767Z,19.47
2018-04-07T22:25:37.029Z,17.63
2018-04-07T22:28:04.621Z,19.37
2018-04-07T22:30:32.196Z,20.50
2018-04-07T22:32:59.748Z,22.17
2018-04-07T22:35:27.350Z,20.27
2018-04-07T22:37:55.683Z,17.60
2018-04-07T22:40:23.255Z,17.37
2018-04-07T22:42:50.814Z,19.30
2018-04-07T22:45:18.375Z,16.63
2018-04-07T22:47:45.958Z,19.87
2018-04-07T22:50:13.502Z,17.73
2018-04-07T22:52:41.097Z,18.40
2018-04-07T22:55:09.416Z,18.27
2018-04-07T22:57:56.829Z,22.30
2018-04-07T23:00:24.390Z,22.80
2018-04-07T23:02:51.944Z,19.57
2018-04-07T23:05:19.520Z,20.23
2018-04-07T23:07:47.108Z,20.63
2018-04-07T23:10:24.758Z,18.40
2018-04-07T23:12:52.323Z,19.30
2018-04-07T23:15:19.884Z,23.57
2018-04-07T23:17:47.469Z,18.00
2018-04-07T23:20:15.023Z,21.07
2018-04-07T23:22:42.593Z,20.00
2018-04-07T23:25:10.158Z,21.10
2018-04-07T23:27:37.716Z,21.67
2018-04-07T23:30:05.290Z,17.97
2018-04-07T23:32:32.839Z,19.83
2018-04-07T23:35:03.440Z,19.57
2018-04-07T23:37:30.988Z,20.90
2018-04-07T23:39:58.534Z,24.83
2018-04-07T23:42:26.114Z,21.27
2018-04-07T23:44:53.676Z,18.33
2018-04-07T23:47:21.256Z,21.87
2018-04-07T23:49:48.810Z,21.57
2018-04-07T23:52:16.363Z,20.20
2018-04-07T23:54:43.931Z,19.67
2018-04-07T23:57:11.514Z,23.70
2018-04-07T23:59:39.861Z,18.07
